sensor_id;sensor_type;location;lat;lon;timestamp;temperature;humidity
69009;SHT31;56065;52.472;13.380;2023-04-24T00:01:15;12.96;80.97
69009;SHT31;56065;52.472;13.380;2023-04-24T00:03:42;12.99;80.89
69009;SHT31;56065;52.472;13.380;2023-04-24T00:06:08;12.96;81.06
69009;SHT31;56065;52.472;13.380;2023-04-24T00:08:34;12.96;81.19
69009;SHT31;56065;52.472;13.380;2023-04-24T00:11:00;12.96;81.35
69009;SHT31;56065;52.472;13.380;2023-04-24T00:13:25;12.96;81.30
69009;SHT31;56065;52.472;13.380;2023-04-24T00:15:51;12.99;81.34
69009;SHT31;56065;52.472;13.380;2023-04-24T00:18:16;12.94;81.43
69009;SHT31;56065;52.472;13.380;2023-04-24T00:20:42;12.92;81.46
69009;SHT31;56065;52.472;13.380;2023-04-24T00:23:08;12.87;81.61
69009;SHT31;56065;52.472;13.380;2023-04-24T00:25:34;12.84;81.94
69009;SHT31;56065;52.472;13.380;2023-04-24T00:27:59;12.83;81.91
69009;SHT31;56065;52.472;13.380;2023-04-24T00:30:24;12.83;81.90
69009;SHT31;56065;52.472;13.380;2023-04-24T00:32:50;12.77;82.18
69009;SHT31;56065;52.472;13.380;2023-04-24T00:35:15;12.75;82.06
69009;SHT31;56065;52.472;13.380;2023-04-24T00:37:41;12.70;82.40
69009;SHT31;56065;52.472;13.380;2023-04-24T00:40:07;12.76;82.36
69009;SHT31;56065;52.472;13.380;2023-04-24T00:42:33;12.70;82.71
69009;SHT31;56065;52.472;13.380;2023-04-24T00:45:00;12.70;82.65
69009;SHT31;56065;52.472;13.380;2023-04-24T00:47:26;12.66;82.39
69009;SHT31;56065;52.472;13.380;2023-04-24T00:49:52;12.67;82.77
69009;SHT31;56065;52.472;13.380;2023-04-24T00:52:17;12.67;82.86
69009;SHT31;56065;52.472;13.380;2023-04-24T00:54:43;12.65;83.03
69009;SHT31;56065;52.472;13.380;2023-04-24T00:57:10;12.66;83.07
69009;SHT31;56065;52.472;13.380;2023-04-24T00:59:36;12.63;83.23
69009;SHT31;56065;52.472;13.380;2023-04-24T01:02:01;12.60;83.48
69009;SHT31;56065;52.472;13.380;2023-04-24T01:04:27;12.65;83.20
69009;SHT31;56065;52.472;13.380;2023-04-24T01:06:52;12.62;83.20
69009;SHT31;56065;52.472;13.380;2023-04-24T01:09:21;12.62;82.87
69009;SHT31;56065;52.472;13.380;2023-04-24T01:11:48;12.66;83.02
69009;SHT31;56065;52.472;13.380;2023-04-24T01:14:14;12.67;83.30
69009;SHT31;56065;52.472;13.380;2023-04-24T01:16:39;12.67;83.22
69009;SHT31;56065;52.472;13.380;2023-04-24T01:19:06;12.75;83.26
69009;SHT31;56065;52.472;13.380;2023-04-24T01:21:35;12.83;83.13
69009;SHT31;56065;52.472;13.380;2023-04-24T01:24:02;12.92;83.19
69009;SHT31;56065;52.472;13.380;2023-04-24T01:26:27;12.89;83.12
69009;SHT31;56065;52.472;13.380;2023-04-24T01:28:53;12.93;83.07
69009;SHT31;56065;52.472;13.380;2023-04-24T01:31:18;12.96;83.06
69009;SHT31;56065;52.472;13.380;2023-04-24T01:33:44;12.90;83.60
69009;SHT31;56065;52.472;13.380;2023-04-24T01:36:11;12.94;83.36
69009;SHT31;56065;52.472;13.380;2023-04-24T01:38:36;12.90;83.80
69009;SHT31;56065;52.472;13.380;2023-04-24T01:41:02;12.80;84.19
69009;SHT31;56065;52.472;13.380;2023-04-24T01:43:28;12.93;83.75
69009;SHT31;56065;52.472;13.380;2023-04-24T01:45:53;12.79;84.46
69009;SHT31;56065;52.472;13.380;2023-04-24T01:48:19;12.86;84.16
69009;SHT31;56065;52.472;13.380;2023-04-24T01:50:44;12.94;83.92
69009;SHT31;56065;52.472;13.380;2023-04-24T01:53:10;12.93;84.08
69009;SHT31;56065;52.472;13.380;2023-04-24T01:55:36;12.99;83.72
69009;SHT31;56065;52.472;13.380;2023-04-24T01:58:01;13.04;83.42
69009;SHT31;56065;52.472;13.380;2023-04-24T02:00:27;13.04;83.23
69009;SHT31;56065;52.472;13.380;2023-04-24T02:02:52;13.11;83.43
69009;SHT31;56065;52.472;13.380;2023-04-24T02:05:18;12.96;84.46
69009;SHT31;56065;52.472;13.380;2023-04-24T02:07:43;13.08;83.84
69009;SHT31;56065;52.472;13.380;2023-04-24T02:10:09;13.11;83.90
69009;SHT31;56065;52.472;13.380;2023-04-24T02:12:35;13.17;83.56
69009;SHT31;56065;52.472;13.380;2023-04-24T02:15:00;13.21;83.42
69009;SHT31;56065;52.472;13.380;2023-04-24T02:17:26;13.17;83.79
69009;SHT31;56065;52.472;13.380;2023-04-24T02:19:51;13.23;83.36
69009;SHT31;56065;52.472;13.380;2023-04-24T02:22:17;13.23;83.33
69009;SHT31;56065;52.472;13.380;2023-04-24T02:24:42;13.24;83.34
69009;SHT31;56065;52.472;13.380;2023-04-24T02:27:07;13.24;83.43
69009;SHT31;56065;52.472;13.380;2023-04-24T02:29:33;13.21;83.43
69009;SHT31;56065;52.472;13.380;2023-04-24T02:31:58;13.15;83.78
69009;SHT31;56065;52.472;13.380;2023-04-24T02:34:23;13.14;83.95
69009;SHT31;56065;52.472;13.380;2023-04-24T02:36:49;13.18;83.85
69009;SHT31;56065;52.472;13.380;2023-04-24T02:39:15;13.10;84.29
69009;SHT31;56065;52.472;13.380;2023-04-24T02:41:43;13.18;83.79
69009;SHT31;56065;52.472;13.380;2023-04-24T02:44:09;13.11;84.33
69009;SHT31;56065;52.472;13.380;2023-04-24T02:46:35;13.18;84.00
69009;SHT31;56065;52.472;13.380;2023-04-24T02:49:00;13.17;83.83
69009;SHT31;56065;52.472;13.380;2023-04-24T02:51:25;13.13;84.20
69009;SHT31;56065;52.472;13.380;2023-04-24T02:53:52;12.92;85.14
69009;SHT31;56065;52.472;13.380;2023-04-24T02:56:17;12.97;85.01
69009;SHT31;56065;52.472;13.380;2023-04-24T02:58:42;13.07;84.70
69009;SHT31;56065;52.472;13.380;2023-04-24T03:01:08;13.06;84.57
69009;SHT31;56065;52.472;13.380;2023-04-24T03:03:35;13.11;84.51
69009;SHT31;56065;52.472;13.380;2023-04-24T03:06:00;13.18;84.47
69009;SHT31;56065;52.472;13.380;2023-04-24T03:08:26;12.94;85.23
69009;SHT31;56065;52.472;13.380;2023-04-24T03:10:52;13.17;84.33
69009;SHT31;56065;52.472;13.380;2023-04-24T03:13:17;13.21;84.46
69009;SHT31;56065;52.472;13.380;2023-04-24T03:15:42;13.11;84.77
69009;SHT31;56065;52.472;13.380;2023-04-24T03:18:08;13.20;84.45
69009;SHT31;56065;52.472;13.380;2023-04-24T03:20:33;13.17;84.40
69009;SHT31;56065;52.472;13.380;2023-04-24T03:22:59;13.24;84.40
69009;SHT31;56065;52.472;13.380;2023-04-24T03:25:24;13.18;84.42
69009;SHT31;56065;52.472;13.380;2023-04-24T03:27:50;13.23;84.46
69009;SHT31;56065;52.472;13.380;2023-04-24T03:30:15;13.18;84.69
69009;SHT31;56065;52.472;13.380;2023-04-24T03:32:40;13.25;84.51
69009;SHT31;56065;52.472;13.380;2023-04-24T03:35:07;13.34;84.02
69009;SHT31;56065;52.472;13.380;2023-04-24T03:37:33;13.30;84.28
69009;SHT31;56065;52.472;13.380;2023-04-24T03:39:58;13.40;83.92
69009;SHT31;56065;52.472;13.380;2023-04-24T03:42:24;13.30;84.40
69009;SHT31;56065;52.472;13.380;2023-04-24T03:44:49;13.47;83.71
69009;SHT31;56065;52.472;13.380;2023-04-24T03:47:14;13.41;83.85
69009;SHT31;56065;52.472;13.380;2023-04-24T03:49:40;13.34;84.33
69009;SHT31;56065;52.472;13.380;2023-04-24T03:52:05;13.40;84.17
69009;SHT31;56065;52.472;13.380;2023-04-24T03:54:30;13.54;83.73
69009;SHT31;56065;52.472;13.380;2023-04-24T03:56:56;13.51;83.80
69009;SHT31;56065;52.472;13.380;2023-04-24T03:59:21;13.43;83.83
69009;SHT31;56065;52.472;13.380;2023-04-24T04:01:46;13.57;83.73
69009;SHT31;56065;52.472;13.380;2023-04-24T04:04:12;13.58;83.62
69009;SHT31;56065;52.472;13.380;2023-04-24T04:06:37;13.65;83.39
69009;SHT31;56065;52.472;13.380;2023-04-24T04:09:03;13.51;83.84
69009;SHT31;56065;52.472;13.380;2023-04-24T04:11:29;13.51;83.93
69009;SHT31;56065;52.472;13.380;2023-04-24T04:13:55;13.59;83.69
69009;SHT31;56065;52.472;13.380;2023-04-24T04:16:22;13.64;83.64
69009;SHT31;56065;52.472;13.380;2023-04-24T04:18:47;13.57;83.80
69009;SHT31;56065;52.472;13.380;2023-04-24T04:21:12;13.54;83.98
69009;SHT31;56065;52.472;13.380;2023-04-24T04:23:38;13.64;83.54
69009;SHT31;56065;52.472;13.380;2023-04-24T04:26:04;13.65;83.57
69009;SHT31;56065;52.472;13.380;2023-04-24T04:28:30;13.62;83.66
69009;SHT31;56065;52.472;13.380;2023-04-24T04:30:57;13.75;83.52
69009;SHT31;56065;52.472;13.380;2023-04-24T04:33:23;13.65;83.61
69009;SHT31;56065;52.472;13.380;2023-04-24T04:35:49;13.66;83.53
69009;SHT31;56065;52.472;13.380;2023-04-24T04:38:15;13.69;83.23
69009;SHT31;56065;52.472;13.380;2023-04-24T04:40:42;13.82;83.00
69009;SHT31;56065;52.472;13.380;2023-04-24T04:43:07;13.78;82.99
69009;SHT31;56065;52.472;13.380;2023-04-24T04:45:33;13.82;83.02
69009;SHT31;56065;52.472;13.380;2023-04-24T04:47:59;13.90;82.62
69009;SHT31;56065;52.472;13.380;2023-04-24T04:50:28;13.96;82.44
69009;SHT31;56065;52.472;13.380;2023-04-24T04:52:54;13.93;82.62
69009;SHT31;56065;52.472;13.380;2023-04-24T04:55:19;13.66;83.38
69009;SHT31;56065;52.472;13.380;2023-04-24T04:57:45;13.75;83.21
69009;SHT31;56065;52.472;13.380;2023-04-24T05:00:12;13.68;83.20
69009;SHT31;56065;52.472;13.380;2023-04-24T05:02:38;13.89;82.69
69009;SHT31;56065;52.472;13.380;2023-04-24T05:05:04;13.89;82.95
69009;SHT31;56065;52.472;13.380;2023-04-24T05:07:30;14.06;82.14
69009;SHT31;56065;52.472;13.380;2023-04-24T05:09:56;14.10;82.41
69009;SHT31;56065;52.472;13.380;2023-04-24T05:12:21;14.06;82.10
69009;SHT31;56065;52.472;13.380;2023-04-24T05:14:46;14.20;81.87
69009;SHT31;56065;52.472;13.380;2023-04-24T05:17:11;14.17;81.93
69009;SHT31;56065;52.472;13.380;2023-04-24T05:19:37;14.20;81.58
69009;SHT31;56065;52.472;13.380;2023-04-24T05:22:03;14.23;81.35
69009;SHT31;56065;52.472;13.380;2023-04-24T05:24:32;14.32;81.43
69009;SHT31;56065;52.472;13.380;2023-04-24T05:26:57;14.27;81.01
69009;SHT31;56065;52.472;13.380;2023-04-24T05:29:23;14.38;80.65
69009;SHT31;56065;52.472;13.380;2023-04-24T05:31:49;14.24;80.34
69009;SHT31;56065;52.472;13.380;2023-04-24T05:34:15;14.13;80.46
69009;SHT31;56065;52.472;13.380;2023-04-24T05:36:41;14.13;80.86
69009;SHT31;56065;52.472;13.380;2023-04-24T05:39:07;14.47;80.30
69009;SHT31;56065;52.472;13.380;2023-04-24T05:41:33;14.61;79.63
69009;SHT31;56065;52.472;13.380;2023-04-24T05:43:59;14.81;79.30
69009;SHT31;56065;52.472;13.380;2023-04-24T05:46:24;14.50;78.78
69009;SHT31;56065;52.472;13.380;2023-04-24T05:48:49;14.70;78.64
69009;SHT31;56065;52.472;13.380;2023-04-24T05:51:14;14.67;78.83
69009;SHT31;56065;52.472;13.380;2023-04-24T05:53:40;14.92;78.50
69009;SHT31;56065;52.472;13.380;2023-04-24T05:56:05;14.91;77.98
69009;SHT31;56065;52.472;13.380;2023-04-24T05:58:31;15.18;77.33
69009;SHT31;56065;52.472;13.380;2023-04-24T06:00:56;16.01;75.88
69009;SHT31;56065;52.472;13.380;2023-04-24T06:03:23;16.40;74.05
69009;SHT31;56065;52.472;13.380;2023-04-24T06:05:50;16.29;73.61
69009;SHT31;56065;52.472;13.380;2023-04-24T06:08:16;16.82;72.91
69009;SHT31;56065;52.472;13.380;2023-04-24T06:10:41;17.61;70.69
69009;SHT31;56065;52.472;13.380;2023-04-24T06:13:07;17.37;70.65
69009;SHT31;56065;52.472;13.380;2023-04-24T06:15:32;17.70;70.26
69009;SHT31;56065;52.472;13.380;2023-04-24T06:17:58;18.70;67.87
69009;SHT31;56065;52.472;13.380;2023-04-24T06:20:23;18.60;67.09
69009;SHT31;56065;52.472;13.380;2023-04-24T06:22:49;17.95;67.73
69009;SHT31;56065;52.472;13.380;2023-04-24T06:25:14;17.00;69.93
69009;SHT31;56065;52.472;13.380;2023-04-24T06:27:40;17.00;70.46
69009;SHT31;56065;52.472;13.380;2023-04-24T06:30:06;17.60;69.50
69009;SHT31;56065;52.472;13.380;2023-04-24T06:32:32;18.39;68.23
69009;SHT31;56065;52.472;13.380;2023-04-24T06:34:57;19.97;64.33
69009;SHT31;56065;52.472;13.380;2023-04-24T06:37:23;21.16;60.90
69009;SHT31;56065;52.472;13.380;2023-04-24T06:39:48;21.87;59.58
69009;SHT31;56065;52.472;13.380;2023-04-24T06:42:16;22.55;57.78
69009;SHT31;56065;52.472;13.380;2023-04-24T06:44:41;23.02;55.89
69009;SHT31;56065;52.472;13.380;2023-04-24T06:47:08;23.23;54.89
69009;SHT31;56065;52.472;13.380;2023-04-24T06:49:37;23.98;54.40
69009;SHT31;56065;52.472;13.380;2023-04-24T06:52:03;24.20;53.23
69009;SHT31;56065;52.472;13.380;2023-04-24T06:54:30;24.44;51.59
69009;SHT31;56065;52.472;13.380;2023-04-24T06:56:56;25.19;49.97
69009;SHT31;56065;52.472;13.380;2023-04-24T06:59:25;26.31;49.91
69009;SHT31;56065;52.472;13.380;2023-04-24T07:01:50;25.50;48.72
69009;SHT31;56065;52.472;13.380;2023-04-24T07:04:16;24.59;51.04
69009;SHT31;56065;52.472;13.380;2023-04-24T07:06:42;24.49;51.45
69009;SHT31;56065;52.472;13.380;2023-04-24T07:09:08;23.92;52.14
69009;SHT31;56065;52.472;13.380;2023-04-24T07:11:34;25.21;50.89
69009;SHT31;56065;52.472;13.380;2023-04-24T07:14:00;23.82;51.05
69009;SHT31;56065;52.472;13.380;2023-04-24T07:16:25;24.26;51.88
69009;SHT31;56065;52.472;13.380;2023-04-24T07:18:51;23.16;52.15
69009;SHT31;56065;52.472;13.380;2023-04-24T07:21:17;22.60;53.85
69009;SHT31;56065;52.472;13.380;2023-04-24T07:23:42;22.89;53.63
69009;SHT31;56065;52.472;13.380;2023-04-24T07:26:07;23.85;51.76
69009;SHT31;56065;52.472;13.380;2023-04-24T07:28:33;23.34;52.07
69009;SHT31;56065;52.472;13.380;2023-04-24T07:31:01;22.69;52.28
69009;SHT31;56065;52.472;13.380;2023-04-24T07:33:27;23.27;51.94
69009;SHT31;56065;52.472;13.380;2023-04-24T07:35:52;23.53;50.99
69009;SHT31;56065;52.472;13.380;2023-04-24T07:38:18;24.88;49.42
69009;SHT31;56065;52.472;13.380;2023-04-24T07:40:47;26.74;45.31
69009;SHT31;56065;52.472;13.380;2023-04-24T07:43:12;26.20;44.54
69009;SHT31;56065;52.472;13.380;2023-04-24T07:45:37;27.16;44.31
69009;SHT31;56065;52.472;13.380;2023-04-24T07:48:04;27.02;43.27
69009;SHT31;56065;52.472;13.380;2023-04-24T07:50:30;28.12;43.72
69009;SHT31;56065;52.472;13.380;2023-04-24T07:52:56;26.98;42.55
69009;SHT31;56065;52.472;13.380;2023-04-24T07:55:21;26.25;43.92
69009;SHT31;56065;52.472;13.380;2023-04-24T07:57:46;26.30;44.02
69009;SHT31;56065;52.472;13.380;2023-04-24T08:00:12;29.37;41.89
69009;SHT31;56065;52.472;13.380;2023-04-24T08:02:38;31.25;39.33
69009;SHT31;56065;52.472;13.380;2023-04-24T08:05:05;33.37;37.43
69009;SHT31;56065;52.472;13.380;2023-04-24T08:07:31;34.34;37.75
69009;SHT31;56065;52.472;13.380;2023-04-24T08:09:56;32.16;37.30
69009;SHT31;56065;52.472;13.380;2023-04-24T08:12:21;31.62;38.93
69009;SHT31;56065;52.472;13.380;2023-04-24T08:14:47;30.94;38.92
69009;SHT31;56065;52.472;13.380;2023-04-24T08:17:12;29.30;40.75
69009;SHT31;56065;52.472;13.380;2023-04-24T08:19:40;27.68;42.50
69009;SHT31;56065;52.472;13.380;2023-04-24T08:22:08;26.68;44.40
69009;SHT31;56065;52.472;13.380;2023-04-24T08:24:33;26.79;44.94
69009;SHT31;56065;52.472;13.380;2023-04-24T08:26:58;26.48;45.64
69009;SHT31;56065;52.472;13.380;2023-04-24T08:29:24;25.65;46.03
69009;SHT31;56065;52.472;13.380;2023-04-24T08:31:49;25.97;46.04
69009;SHT31;56065;52.472;13.380;2023-04-24T08:34:15;27.17;43.89
69009;SHT31;56065;52.472;13.380;2023-04-24T08:36:40;26.55;44.15
69009;SHT31;56065;52.472;13.380;2023-04-24T08:39:06;25.31;45.25
69009;SHT31;56065;52.472;13.380;2023-04-24T08:41:33;24.41;46.50
69009;SHT31;56065;52.472;13.380;2023-04-24T08:44:00;23.62;47.60
69009;SHT31;56065;52.472;13.380;2023-04-24T08:46:27;23.68;47.98
69009;SHT31;56065;52.472;13.380;2023-04-24T08:48:52;25.32;46.58
69009;SHT31;56065;52.472;13.380;2023-04-24T08:51:18;25.77;45.24
69009;SHT31;56065;52.472;13.380;2023-04-24T08:53:45;25.50;45.14
69009;SHT31;56065;52.472;13.380;2023-04-24T08:56:11;27.54;44.34
69009;SHT31;56065;52.472;13.380;2023-04-24T08:58:37;26.76;45.06
69009;SHT31;56065;52.472;13.380;2023-04-24T09:01:04;25.65;45.59
69009;SHT31;56065;52.472;13.380;2023-04-24T09:03:31;24.74;47.27
69009;SHT31;56065;52.472;13.380;2023-04-24T09:05:57;23.71;49.03
69009;SHT31;56065;52.472;13.380;2023-04-24T09:08:24;23.41;49.80
69009;SHT31;56065;52.472;13.380;2023-04-24T09:10:50;23.33;49.95
69009;SHT31;56065;52.472;13.380;2023-04-24T09:13:16;22.48;50.54
69009;SHT31;56065;52.472;13.380;2023-04-24T09:15:42;22.22;50.95
69009;SHT31;56065;52.472;13.380;2023-04-24T09:18:07;21.66;52.44
69009;SHT31;56065;52.472;13.380;2023-04-24T09:20:33;20.76;55.02
69009;SHT31;56065;52.472;13.380;2023-04-24T09:23:00;20.41;55.50
69009;SHT31;56065;52.472;13.380;2023-04-24T09:25:32;20.51;56.04
69009;SHT31;56065;52.472;13.380;2023-04-24T09:28:04;21.22;55.47
69009;SHT31;56065;52.472;13.380;2023-04-24T09:30:31;21.84;53.72
69009;SHT31;56065;52.472;13.380;2023-04-24T09:33:13;21.49;53.76
69009;SHT31;56065;52.472;13.380;2023-04-24T09:35:42;21.58;54.26
69009;SHT31;56065;52.472;13.380;2023-04-24T09:38:10;21.43;54.54
69009;SHT31;56065;52.472;13.380;2023-04-24T09:40:35;21.57;54.21
69009;SHT31;56065;52.472;13.380;2023-04-24T09:43:01;21.63;53.51
69009;SHT31;56065;52.472;13.380;2023-04-24T09:45:29;21.46;53.91
69009;SHT31;56065;52.472;13.380;2023-04-24T09:48:00;21.03;54.41
69009;SHT31;56065;52.472;13.380;2023-04-24T09:50:26;21.29;54.18
69009;SHT31;56065;52.472;13.380;2023-04-24T09:52:59;21.00;53.88
69009;SHT31;56065;52.472;13.380;2023-04-24T09:55:26;21.26;53.85
69009;SHT31;56065;52.472;13.380;2023-04-24T09:57:55;21.42;54.29
69009;SHT31;56065;52.472;13.380;2023-04-24T10:00:25;21.29;54.15
69009;SHT31;56065;52.472;13.380;2023-04-24T10:03:02;22.25;53.07
69009;SHT31;56065;52.472;13.380;2023-04-24T10:05:36;22.73;53.36
69009;SHT31;56065;52.472;13.380;2023-04-24T10:08:09;23.88;50.71
69009;SHT31;56065;52.472;13.380;2023-04-24T10:10:39;24.75;47.91
69009;SHT31;56065;52.472;13.380;2023-04-24T10:13:07;25.16;47.06
69009;SHT31;56065;52.472;13.380;2023-04-24T10:15:32;25.05;48.14
69009;SHT31;56065;52.472;13.380;2023-04-24T10:17:59;24.68;48.10
69009;SHT31;56065;52.472;13.380;2023-04-24T10:20:28;24.15;48.75
69009;SHT31;56065;52.472;13.380;2023-04-24T10:22:57;23.98;49.32
69009;SHT31;56065;52.472;13.380;2023-04-24T10:25:25;24.01;50.26
69009;SHT31;56065;52.472;13.380;2023-04-24T10:27:52;23.65;49.52
69009;SHT31;56065;52.472;13.380;2023-04-24T10:30:19;22.52;51.81
69009;SHT31;56065;52.472;13.380;2023-04-24T10:32:45;21.46;53.48
69009;SHT31;56065;52.472;13.380;2023-04-24T10:35:13;20.89;54.69
69009;SHT31;56065;52.472;13.380;2023-04-24T10:37:47;20.86;54.29
69009;SHT31;56065;52.472;13.380;2023-04-24T10:40:17;19.97;55.81
69009;SHT31;56065;52.472;13.380;2023-04-24T10:42:47;19.38;57.23
69009;SHT31;56065;52.472;13.380;2023-04-24T10:45:16;19.03;57.83
69009;SHT31;56065;52.472;13.380;2023-04-24T10:47:51;19.03;58.55
69009;SHT31;56065;52.472;13.380;2023-04-24T10:50:16;18.80;59.45
69009;SHT31;56065;52.472;13.380;2023-04-24T10:52:46;18.70;59.45
69009;SHT31;56065;52.472;13.380;2023-04-24T10:55:13;18.95;59.36
69009;SHT31;56065;52.472;13.380;2023-04-24T10:57:39;19.15;59.82
69009;SHT31;56065;52.472;13.380;2023-04-24T11:02:38;20.52;56.77
69009;SHT31;56065;52.472;13.380;2023-04-24T11:05:06;21.84;54.16
69009;SHT31;56065;52.472;13.380;2023-04-24T11:08:09;23.53;51.76
69009;SHT31;56065;52.472;13.380;2023-04-24T11:10:46;25.26;49.62
69009;SHT31;56065;52.472;13.380;2023-04-24T11:13:21;24.88;48.65
69009;SHT31;56065;52.472;13.380;2023-04-24T11:18:39;25.38;47.11
69009;SHT31;56065;52.472;13.380;2023-04-24T11:21:17;23.89;48.83
69009;SHT31;56065;52.472;13.380;2023-04-24T11:23:42;22.83;50.71
69009;SHT31;56065;52.472;13.380;2023-04-24T11:26:19;22.36;52.08
69009;SHT31;56065;52.472;13.380;2023-04-24T11:28:50;21.70;53.25
69009;SHT31;56065;52.472;13.380;2023-04-24T11:31:35;21.06;54.80
69009;SHT31;56065;52.472;13.380;2023-04-24T11:34:12;19.61;62.02
69009;SHT31;56065;52.472;13.380;2023-04-24T11:36:39;20.30;62.29
69009;SHT31;56065;52.472;13.380;2023-04-24T11:39:06;21.50;57.87
69009;SHT31;56065;52.472;13.380;2023-04-24T11:41:32;22.89;55.85
69009;SHT31;56065;52.472;13.380;2023-04-24T11:43:58;22.62;55.03
69009;SHT31;56065;52.472;13.380;2023-04-24T11:46:27;22.19;57.65
69009;SHT31;56065;52.472;13.380;2023-04-24T11:48:53;21.90;57.60
69009;SHT31;56065;52.472;13.380;2023-04-24T11:51:18;22.25;57.22
69009;SHT31;56065;52.472;13.380;2023-04-24T11:53:43;23.16;55.56
69009;SHT31;56065;52.472;13.380;2023-04-24T11:56:09;22.89;54.58
69009;SHT31;56065;52.472;13.380;2023-04-24T11:58:35;22.57;55.45
69009;SHT31;56065;52.472;13.380;2023-04-24T12:01:01;22.57;57.03
69009;SHT31;56065;52.472;13.380;2023-04-24T12:03:26;23.69;53.39
69009;SHT31;56065;52.472;13.380;2023-04-24T12:05:52;24.25;53.30
69009;SHT31;56065;52.472;13.380;2023-04-24T12:08:29;24.78;52.31
69009;SHT31;56065;52.472;13.380;2023-04-24T12:10:56;25.61;50.24
69009;SHT31;56065;52.472;13.380;2023-04-24T12:13:21;26.48;49.24
69009;SHT31;56065;52.472;13.380;2023-04-24T12:15:47;27.07;47.79
69009;SHT31;56065;52.472;13.380;2023-04-24T12:18:12;27.15;46.78
69009;SHT31;56065;52.472;13.380;2023-04-24T12:20:40;27.40;46.73
69009;SHT31;56065;52.472;13.380;2023-04-24T12:23:05;26.55;45.17
69009;SHT31;56065;52.472;13.380;2023-04-24T12:25:32;26.43;45.18
69009;SHT31;56065;52.472;13.380;2023-04-24T12:30:30;25.28;42.98
69009;SHT31;56065;52.472;13.380;2023-04-24T12:32:57;24.16;45.08
69009;SHT31;56065;52.472;13.380;2023-04-24T12:35:25;23.89;45.72
69009;SHT31;56065;52.472;13.380;2023-04-24T12:37:51;22.83;44.56
69009;SHT31;56065;52.472;13.380;2023-04-24T12:40:17;23.31;45.17
69009;SHT31;56065;52.472;13.380;2023-04-24T12:42:45;24.10;43.54
69009;SHT31;56065;52.472;13.380;2023-04-24T12:45:11;24.40;42.06
69009;SHT31;56065;52.472;13.380;2023-04-24T12:47:41;23.74;42.07
69009;SHT31;56065;52.472;13.380;2023-04-24T12:50:12;23.35;42.86
69009;SHT31;56065;52.472;13.380;2023-04-24T12:52:39;21.94;44.22
69009;SHT31;56065;52.472;13.380;2023-04-24T12:55:05;22.14;44.11
69009;SHT31;56065;52.472;13.380;2023-04-24T12:57:33;22.24;43.42
69009;SHT31;56065;52.472;13.380;2023-04-24T13:00:00;22.34;43.13
69009;SHT31;56065;52.472;13.380;2023-04-24T13:02:27;22.85;42.30
69009;SHT31;56065;52.472;13.380;2023-04-24T13:04:53;23.03;42.19
69009;SHT31;56065;52.472;13.380;2023-04-24T13:07:19;23.47;42.33
69009;SHT31;56065;52.472;13.380;2023-04-24T13:09:45;23.55;39.64
69009;SHT31;56065;52.472;13.380;2023-04-24T13:12:11;23.40;39.67
69009;SHT31;56065;52.472;13.380;2023-04-24T13:14:37;24.47;39.54
69009;SHT31;56065;52.472;13.380;2023-04-24T13:17:03;25.43;38.45
69009;SHT31;56065;52.472;13.380;2023-04-24T13:19:29;24.92;38.18
69009;SHT31;56065;52.472;13.380;2023-04-24T13:21:56;25.45;38.39
69009;SHT31;56065;52.472;13.380;2023-04-24T13:24:23;24.78;38.17
69009;SHT31;56065;52.472;13.380;2023-04-24T13:26:52;24.39;39.17
69009;SHT31;56065;52.472;13.380;2023-04-24T13:29:17;23.66;39.62
69009;SHT31;56065;52.472;13.380;2023-04-24T13:31:42;23.82;39.01
69009;SHT31;56065;52.472;13.380;2023-04-24T13:34:08;23.89;38.45
69009;SHT31;56065;52.472;13.380;2023-04-24T13:36:33;23.95;37.80
69009;SHT31;56065;52.472;13.380;2023-04-24T13:38:59;24.54;37.59
69009;SHT31;56065;52.472;13.380;2023-04-24T13:41:24;24.50;37.75
69009;SHT31;56065;52.472;13.380;2023-04-24T13:43:49;22.80;39.62
69009;SHT31;56065;52.472;13.380;2023-04-24T13:46:16;21.66;41.70
69009;SHT31;56065;52.472;13.380;2023-04-24T13:48:41;22.15;41.52
69009;SHT31;56065;52.472;13.380;2023-04-24T13:51:06;22.63;39.25
69009;SHT31;56065;52.472;13.380;2023-04-24T13:53:32;23.16;38.65
69009;SHT31;56065;52.472;13.380;2023-04-24T13:56:01;22.97;39.92
69009;SHT31;56065;52.472;13.380;2023-04-24T13:58:26;22.97;40.12
69009;SHT31;56065;52.472;13.380;2023-04-24T14:00:52;22.09;41.38
69009;SHT31;56065;52.472;13.380;2023-04-24T14:03:17;21.85;42.02
69009;SHT31;56065;52.472;13.380;2023-04-24T14:05:43;21.40;41.83
69009;SHT31;56065;52.472;13.380;2023-04-24T14:08:08;21.94;41.74
69009;SHT31;56065;52.472;13.380;2023-04-24T14:10:34;21.70;41.42
69009;SHT31;56065;52.472;13.380;2023-04-24T14:12:59;21.63;41.67
69009;SHT31;56065;52.472;13.380;2023-04-24T14:15:25;21.43;42.35
69009;SHT31;56065;52.472;13.380;2023-04-24T14:17:50;21.12;42.77
69009;SHT31;56065;52.472;13.380;2023-04-24T14:20:15;20.84;43.00
69009;SHT31;56065;52.472;13.380;2023-04-24T14:22:41;20.79;43.34
69009;SHT31;56065;52.472;13.380;2023-04-24T14:25:06;21.13;42.74
69009;SHT31;56065;52.472;13.380;2023-04-24T14:27:32;21.51;42.87
69009;SHT31;56065;52.472;13.380;2023-04-24T14:29:59;21.07;41.73
69009;SHT31;56065;52.472;13.380;2023-04-24T14:32:25;20.74;42.36
69009;SHT31;56065;52.472;13.380;2023-04-24T14:34:51;20.21;42.83
69009;SHT31;56065;52.472;13.380;2023-04-24T14:37:16;20.03;43.69
69009;SHT31;56065;52.472;13.380;2023-04-24T14:39:41;19.79;44.85
69009;SHT31;56065;52.472;13.380;2023-04-24T14:42:07;20.59;44.32
69009;SHT31;56065;52.472;13.380;2023-04-24T14:44:32;21.09;43.49
69009;SHT31;56065;52.472;13.380;2023-04-24T14:46:58;21.64;43.30
69009;SHT31;56065;52.472;13.380;2023-04-24T14:49:24;21.94;41.93
69009;SHT31;56065;52.472;13.380;2023-04-24T14:51:49;21.83;43.16
69009;SHT31;56065;52.472;13.380;2023-04-24T14:54:15;21.30;43.14
69009;SHT31;56065;52.472;13.380;2023-04-24T14:56:40;20.79;43.33
69009;SHT31;56065;52.472;13.380;2023-04-24T14:59:06;20.67;44.12
69009;SHT31;56065;52.472;13.380;2023-04-24T15:01:32;20.37;44.63
69009;SHT31;56065;52.472;13.380;2023-04-24T15:03:57;20.10;44.95
69009;SHT31;56065;52.472;13.380;2023-04-24T15:06:23;19.77;45.30
69009;SHT31;56065;52.472;13.380;2023-04-24T15:08:48;20.14;45.38
69009;SHT31;56065;52.472;13.380;2023-04-24T15:11:13;20.14;45.73
69009;SHT31;56065;52.472;13.380;2023-04-24T15:13:39;19.87;45.41
69009;SHT31;56065;52.472;13.380;2023-04-24T15:16:05;19.77;45.70
69009;SHT31;56065;52.472;13.380;2023-04-24T15:18:30;19.86;45.71